Time;durP1;ratioP1;P1;durP2;ratioP2;P2;SDS_P1;SDS_P2;PMS_P1;PMS_P2;Temp;Humidity;BMP_temperature;BMP_pressure;BME280_temperature;BME280_humidity;BME280_pressure;Samples;Min_cycle;Max_cycle;Signal;HPM_P1;HPM_P2
2022/01/27 00:05:48;;;;;;;40.15;22.27;;;;;;;;;;5074415;28;20057;-68
2022/01/27 00:08:52;;;;;;;43.37;23.83;;;;;;;;;;5077435;28;20044;-67
2022/01/27 00:11:34;;;;;;;41.85;22.67;;;;;;;;;;5086036;28;20048;-68
2022/01/27 00:14:18;;;;;;;42.38;23.27;;;;;;;;;;5084421;28;20059;-67
2022/01/27 00:17:12;;;;;;;40.08;23.50;;;;;;;;;;5086611;28;20567;-67
2022/01/27 00:19:52;;;;;;;35.20;22.63;;;;;;;;;;5079107;28;20495;-66
2022/01/27 00:22:40;;;;;;;37.83;22.27;;;;;;;;;;5080010;28;20045;-67
2022/01/27 00:25:28;;;;;;;38.20;22.27;;;;;;;;;;5073757;28;20488;-67
2022/01/27 00:28:08;;;;;;;40.20;21.52;;;;;;;;;;5080187;28;20488;-66
2022/01/27 00:30:50;;;;;;;39.45;22.40;;;;;;;;;;5070486;28;20515;-68
2022/01/27 00:33:42;;;;;;;;;;;;;;;;;;5082156;28;20040;-69
2022/01/27 00:36:26;;;;;;;37.65;20.90;;;;;;;;;;5092153;28;19973;-67
2022/01/27 00:39:08;;;;;;;34.65;21.38;;;;;;;;;;5088531;28;20052;-67
2022/01/27 00:41:50;;;;;;;38.13;22.85;;;;;;;;;;5073507;28;20056;-67
2022/01/27 00:44:29;;;;;;;39.07;21.70;;;;;;;;;;5093817;28;20051;-67
2022/01/27 00:47:19;;;;;;;36.50;22.98;;;;;;;;;;5088207;28;20503;-67
2022/01/27 00:49:57;;;;;;;39.33;22.35;;;;;;;;;;5086667;28;20045;-67
2022/01/27 00:52:52;;;;;;;37.33;22.30;;;;;;;;;;5081236;28;20072;-67
2022/01/27 00:55:41;;;;;;;37.47;21.58;;;;;;;;;;5074225;28;20060;-68
2022/01/27 00:58:49;;;;;;;35.83;21.63;;;;;;;;;;5073454;28;20455;-68
2022/01/27 01:01:31;;;;;;;36.55;19.95;;;;;;;;;;5071940;28;20054;-67
2022/01/27 01:04:15;;;;;;;35.28;21.40;;;;;;;;;;5090489;28;20052;-69
2022/01/27 01:06:59;;;;;;;38.50;21.38;;;;;;;;;;5077195;28;20036;-67
2022/01/27 01:10:33;;;;;;;38.25;20.98;;;;;;;;;;5093797;28;20087;-66
2022/01/27 01:13:51;;;;;;;34.30;20.02;;;;;;;;;;5091751;28;20051;-67
2022/01/27 01:16:01;;;;;;;35.50;20.85;;;;;;;;;;5092203;28;20085;-67
2022/01/27 01:18:57;;;;;;;33.70;19.30;;;;;;;;;;5080215;28;20044;-66
2022/01/27 01:33:20;;;;;;;38.45;21.08;;;;;;;;;;5088521;28;20101;-66
2022/01/27 01:36:26;;;;;;;32.45;19.60;;;;;;;;;;5083151;28;20055;-68
2022/01/27 01:39:06;;;;;;;33.22;19.20;;;;;;;;;;5071572;28;20056;-67
2022/01/27 01:41:46;;;;;;;35.17;19.77;;;;;;;;;;5071327;28;20052;-66
2022/01/27 01:44:32;;;;;;;35.83;20.02;;;;;;;;;;5086099;28;20040;-68
2022/01/27 01:47:05;;;;;;;30.25;19.45;;;;;;;;;;5072031;28;20113;-69
2022/01/27 01:49:45;;;;;;;33.33;19.23;;;;;;;;;;5084293;28;20059;-66
2022/01/27 01:52:19;;;;;;;34.30;18.85;;;;;;;;;;5091355;28;20044;-68
2022/01/27 01:54:56;;;;;;;29.10;19.85;;;;;;;;;;5087733;28;20051;-67
2022/01/27 01:57:30;;;;;;;35.85;18.98;;;;;;;;;;5073397;28;20044;-68
2022/01/27 02:00:08;;;;;;;35.47;20.45;;;;;;;;;;5073070;28;20044;-69
2022/01/27 02:02:55;;;;;;;34.05;20.85;;;;;;;;;;5082703;28;20052;-69
2022/01/27 02:05:42;;;;;;;30.02;18.38;;;;;;;;;;5073064;28;20102;-66
2022/01/27 02:20:06;;;;;;;36.10;20.15;;;;;;;;;;5091242;28;20048;-66
2022/01/27 02:22:52;;;;;;;33.45;20.70;;;;;;;;;;5091500;28;20517;-67
2022/01/27 02:25:36;;;;;;;34.75;19.35;;;;;;;;;;5090469;28;20051;-67
2022/01/27 02:28:13;;;;;;;37.58;21.27;;;;;;;;;;5085682;28;20048;-68
2022/01/27 02:30:51;;;;;;;39.10;19.45;;;;;;;;;;5087325;28;20542;-68
2022/01/27 02:33:46;;;;;;;33.90;20.98;;;;;;;;;;5072015;28;20048;-67
2022/01/27 02:36:30;;;;;;;33.25;19.42;;;;;;;;;;5054382;28;20055;-68
2022/01/27 02:39:16;;;;;;;35.03;20.33;;;;;;;;;;5077758;28;20098;-66
2022/01/27 02:42:03;;;;;;;37.95;21.00;;;;;;;;;;5073051;28;20397;-66
2022/01/27 02:44:48;;;;;;;36.25;22.27;;;;;;;;;;5071461;28;20041;-69
2022/01/27 02:47:31;;;;;;;37.67;20.88;;;;;;;;;;5072461;28;20449;-66
2022/01/27 02:49:59;;;;;;;;;;;;;;;;;;5090011;28;20533;-65
2022/01/27 02:52:43;;;;;;;35.95;20.67;;;;;;;;;;5091128;28;20284;-69
2022/01/27 02:55:25;;;;;;;38.38;21.75;;;;;;;;;;5085508;28;20040;-69
2022/01/27 02:58:11;;;;;;;44.58;23.15;;;;;;;;;;5083038;28;20090;-69
2022/01/27 03:00:53;;;;;;;33.83;21.30;;;;;;;;;;5061481;28;20058;-68
2022/01/27 03:03:41;;;;;;;40.17;22.00;;;;;;;;;;5095386;28;20484;-67
2022/01/27 03:06:20;;;;;;;39.03;21.63;;;;;;;;;;5095659;28;20051;-66
2022/01/27 03:09:08;;;;;;;35.88;21.00;;;;;;;;;;5094745;28;20097;-67
2022/01/27 03:11:51;;;;;;;41.95;23.58;;;;;;;;;;5084662;28;20135;-69
2022/01/27 03:14:36;;;;;;;40.13;23.50;;;;;;;;;;5074979;28;20052;-69
2022/01/27 03:17:23;;;;;;;37.88;21.38;;;;;;;;;;5075040;28;20139;-68
2022/01/27 03:20:08;;;;;;;38.88;22.13;;;;;;;;;;5076475;28;20045;-69
2022/01/27 03:22:34;;;;;;;37.70;21.65;;;;;;;;;;5077182;28;20062;-67
2022/01/27 03:25:18;;;;;;;38.15;21.60;;;;;;;;;;5074836;28;20485;-67
2022/01/27 03:28:10;;;;;;;36.92;21.95;;;;;;;;;;5096092;22;20074;-65
2022/01/27 03:30:53;;;;;;;41.63;23.38;;;;;;;;;;5015573;28;20068;-66
2022/01/27 03:33:19;;;;;;;39.58;23.00;;;;;;;;;;5014184;28;20054;-64
2022/01/27 03:36:06;;;;;;;40.97;23.70;;;;;;;;;;5013749;28;20099;-67
2022/01/27 03:38:55;;;;;;;38.38;23.50;;;;;;;;;;5014753;28;20432;-65
2022/01/27 03:41:46;;;;;;;40.00;21.40;;;;;;;;;;5013737;28;20104;-66
2022/01/27 03:44:43;;;;;;;42.08;23.17;;;;;;;;;;5015156;28;20077;-65
2022/01/27 03:47:09;;;;;;;43.30;23.23;;;;;;;;;;5014525;28;20057;-65
2022/01/27 03:49:35;;;;;;;41.10;24.25;;;;;;;;;;5015672;28;20081;-64
2022/01/27 03:52:02;;;;;;;44.40;23.73;;;;;;;;;;5014330;28;20056;-64
2022/01/27 03:54:30;;;;;;;45.05;24.67;;;;;;;;;;5015932;28;20046;-65
2022/01/27 03:56:56;;;;;;;45.35;22.90;;;;;;;;;;5014066;28;20046;-64
2022/01/27 03:59:32;;;;;;;45.55;23.15;;;;;;;;;;5013880;28;20096;-66
2022/01/27 04:02:05;;;;;;;43.60;24.55;;;;;;;;;;5014101;28;20128;-64
2022/01/27 04:04:31;;;;;;;42.50;24.20;;;;;;;;;;4978128;28;20093;-66
2022/01/27 04:06:58;;;;;;;38.90;22.70;;;;;;;;;;4994990;28;20046;-66
2022/01/27 04:09:24;;;;;;;41.40;23.45;;;;;;;;;;5008371;28;20085;-64
2022/01/27 04:11:54;;;;;;;41.38;23.50;;;;;;;;;;5014448;28;20489;-65
2022/01/27 04:14:24;;;;;;;38.92;22.45;;;;;;;;;;5015215;28;20046;-66
2022/01/27 04:16:59;;;;;;;39.38;22.58;;;;;;;;;;5014434;28;20054;-66
2022/01/27 04:19:38;;;;;;;41.25;23.10;;;;;;;;;;5015083;28;20084;-64
2022/01/27 04:22:05;;;;;;;39.85;22.90;;;;;;;;;;5014154;28;20379;-65
2022/01/27 04:24:39;;;;;;;40.97;21.77;;;;;;;;;;5013936;28;20473;-66
2022/01/27 04:27:08;;;;;;;41.38;21.67;;;;;;;;;;5004543;28;20104;-65
2022/01/27 04:29:42;;;;;;;43.15;24.40;;;;;;;;;;5013662;28;20497;-65
2022/01/27 04:32:19;;;;;;;38.80;21.70;;;;;;;;;;5015625;28;20049;-64
2022/01/27 04:35:04;;;;;;;35.75;21.23;;;;;;;;;;5014804;28;20061;-65
2022/01/27 04:37:37;;;;;;;38.92;21.55;;;;;;;;;;5015126;28;20153;-66
2022/01/27 04:40:33;;;;;;;39.83;22.17;;;;;;;;;;5015661;28;20531;-66
2022/01/27 04:45:57;;;;;;;37.40;20.95;;;;;;;;;;5012923;28;20088;-65
2022/01/27 04:48:51;;;;;;;40.78;22.17;;;;;;;;;;5015526;28;20112;-66
2022/01/27 04:51:31;;;;;;;38.88;22.05;;;;;;;;;;4998588;28;20054;-63
2022/01/27 04:56:42;;;;;;;34.47;21.02;;;;;;;;;;5013781;28;20215;-63
2022/01/27 04:59:19;;;;;;;41.92;22.70;;;;;;;;;;4996252;28;20061;-64
2022/01/27 05:02:25;;;;;;;38.75;20.83;;;;;;;;;;5013437;28;20448;-65
2022/01/27 05:05:13;;;;;;;39.88;21.95;;;;;;;;;;5013085;28;20061;-64
2022/01/27 05:07:59;;;;;;;39.45;21.73;;;;;;;;;;5012670;28;20053;-64
2022/01/27 05:10:41;;;;;;;39.38;20.63;;;;;;;;;;5013706;28;20058;-64
2022/01/27 05:13:18;;;;;;;43.15;22.98;;;;;;;;;;5012766;28;20108;-64
2022/01/27 05:16:02;;;;;;;42.63;22.88;;;;;;;;;;5011911;28;20136;-65
2022/01/27 05:18:38;;;;;;;41.90;21.38;;;;;;;;;;4999601;28;20092;-65
2022/01/27 05:21:04;;;;;;;38.63;20.23;;;;;;;;;;5014052;28;20049;-64
2022/01/27 05:23:45;;;;;;;39.47;21.05;;;;;;;;;;5013007;28;20560;-64
2022/01/27 05:26:11;;;;;;;37.67;21.05;;;;;;;;;;5011461;28;20092;-66
2022/01/27 05:28:45;;;;;;;40.80;20.70;;;;;;;;;;5012211;28;20090;-64
2022/01/27 05:31:23;;;;;;;43.97;20.77;;;;;;;;;;5012585;28;20054;-64
2022/01/27 05:34:03;;;;;;;39.85;21.70;;;;;;;;;;5014045;28;20101;-65
2022/01/27 05:36:40;;;;;;;37.65;20.25;;;;;;;;;;5012245;28;20132;-65
2022/01/27 05:39:22;;;;;;;38.20;20.42;;;;;;;;;;5012939;28;20054;-65
2022/01/27 05:42:08;;;;;;;36.50;20.33;;;;;;;;;;5011789;28;20061;-64
2022/01/27 05:44:51;;;;;;;39.30;20.42;;;;;;;;;;5011896;28;20053;-66
2022/01/27 05:47:39;;;;;;;33.80;21.08;;;;;;;;;;5012322;28;20049;-65
2022/01/27 05:50:19;;;;;;;39.90;19.98;;;;;;;;;;5012521;28;20050;-64
2022/01/27 05:52:59;;;;;;;37.03;20.60;;;;;;;;;;5012895;28;20041;-64
2022/01/27 05:55:26;;;;;;;36.47;21.17;;;;;;;;;;5014362;28;20089;-65
2022/01/27 05:58:08;;;;;;;37.30;20.20;;;;;;;;;;4997872;28;20482;-66
2022/01/27 06:01:02;;;;;;;38.70;20.77;;;;;;;;;;5006504;28;20053;-66
2022/01/27 06:03:54;;;;;;;40.10;20.67;;;;;;;;;;5012817;28;20407;-65
2022/01/27 06:06:38;;;;;;;40.30;19.90;;;;;;;;;;5010986;28;20846;-65
2022/01/27 06:09:18;;;;;;;38.97;20.30;;;;;;;;;;5012861;28;20042;-65
2022/01/27 06:11:44;;;;;;;40.25;20.73;;;;;;;;;;5011103;28;20084;-66
2022/01/27 06:14:49;;;;;;;41.00;22.45;;;;;;;;;;5012199;28;20054;-64
2022/01/27 06:17:29;;;;;;;46.15;21.40;;;;;;;;;;5011618;28;20452;-66
2022/01/27 06:20:11;;;;;;;48.38;21.55;;;;;;;;;;5011557;28;20092;-65
2022/01/27 06:22:47;;;;;;;44.87;21.73;;;;;;;;;;5012414;28;20054;-65
2022/01/27 06:25:30;;;;;;;43.42;20.83;;;;;;;;;;5012007;28;20148;-65
2022/01/27 06:28:16;;;;;;;43.20;21.42;;;;;;;;;;5010757;28;20100;-66
2022/01/27 06:30:56;;;;;;;50.80;22.10;;;;;;;;;;4997749;28;20493;-65
2022/01/27 06:33:46;;;;;;;47.20;22.73;;;;;;;;;;5011556;28;20057;-66
2022/01/27 06:36:30;;;;;;;51.47;23.08;;;;;;;;;;5012602;28;20045;-65
2022/01/27 06:39:20;;;;;;;51.70;22.90;;;;;;;;;;5010342;28;20096;-66
2022/01/27 06:41:47;;;;;;;49.17;22.25;;;;;;;;;;5003710;28;20172;-67
2022/01/27 06:44:13;;;;;;;52.95;23.77;;;;;;;;;;5012248;28;20058;-67
2022/01/27 06:46:39;;;;;;;46.80;23.25;;;;;;;;;;5012480;28;20478;-65
2022/01/27 06:49:06;;;;;;;50.58;22.92;;;;;;;;;;5012209;28;20058;-65
2022/01/27 06:51:56;;;;;;;50.55;23.85;;;;;;;;;;5029261;28;20054;-66
2022/01/27 06:54:37;;;;;;;44.92;22.52;;;;;;;;;;5011095;28;20046;-64
2022/01/27 06:57:28;;;;;;;51.63;22.67;;;;;;;;;;5010146;28;20053;-67
2022/01/27 07:00:20;;;;;;;46.20;22.05;;;;;;;;;;5011476;28;20132;-65
2022/01/27 07:03:04;;;;;;;44.47;21.95;;;;;;;;;;5011374;28;20046;-65
2022/01/27 07:05:56;;;;;;;48.28;20.60;;;;;;;;;;5011522;28;20145;-64
2022/01/27 07:08:38;;;;;;;44.25;21.35;;;;;;;;;;5012483;28;20096;-65
2022/01/27 07:11:26;;;;;;;45.90;21.20;;;;;;;;;;5011522;28;20050;-64
2022/01/27 07:14:14;;;;;;;39.90;20.17;;;;;;;;;;4998403;28;20626;-65
2022/01/27 07:16:57;;;;;;;38.97;18.65;;;;;;;;;;5011554;28;20045;-66
2022/01/27 07:19:39;;;;;;;43.10;20.40;;;;;;;;;;5011382;28;20054;-65
2022/01/27 07:22:23;;;;;;;36.83;19.60;;;;;;;;;;5012836;28;20069;-64
2022/01/27 07:25:03;;;;;;;36.35;18.60;;;;;;;;;;5011298;28;20050;-66
2022/01/27 07:27:44;;;;;;;41.10;18.80;;;;;;;;;;5011074;28;20122;-65
2022/01/27 07:30:30;;;;;;;37.03;18.75;;;;;;;;;;5011643;28;20066;-66
2022/01/27 07:33:22;;;;;;;40.58;18.33;;;;;;;;;;5011520;28;20057;-65
2022/01/27 07:36:06;;;;;;;41.03;18.27;;;;;;;;;;5010102;28;20054;-64
2022/01/27 07:38:47;;;;;;;38.05;18.05;;;;;;;;;;5011815;28;20104;-66
2022/01/27 07:41:31;;;;;;;34.85;17.75;;;;;;;;;;5005021;28;20061;-66
2022/01/27 07:44:11;;;;;;;35.85;17.92;;;;;;;;;;4995212;28;20133;-64
2022/01/27 07:46:53;;;;;;;35.03;17.23;;;;;;;;;;4995013;28;20233;-67
2022/01/27 07:49:39;;;;;;;35.33;17.85;;;;;;;;;;4995314;28;20055;-66
2022/01/27 07:52:21;;;;;;;35.25;16.17;;;;;;;;;;4996512;28;20054;-65
2022/01/27 07:55:01;;;;;;;38.65;17.38;;;;;;;;;;4995452;28;20137;-67
2022/01/27 07:57:41;;;;;;;36.53;17.42;;;;;;;;;;5015266;28;20046;-64
2022/01/27 08:00:25;;;;;;;39.05;17.65;;;;;;;;;;5014909;28;20046;-67
2022/01/27 08:03:03;;;;;;;33.65;15.85;;;;;;;;;;4998421;28;20058;-65
2022/01/27 08:05:38;;;;;;;38.75;17.55;;;;;;;;;;5013662;28;20088;-66
2022/01/27 08:08:20;;;;;;;38.10;17.80;;;;;;;;;;5015528;28;20054;-65
2022/01/27 08:10:56;;;;;;;39.85;17.67;;;;;;;;;;5013943;28;20080;-65
2022/01/27 08:13:31;;;;;;;30.95;16.00;;;;;;;;;;5015695;28;20056;-68
2022/01/27 08:16:06;;;;;;;36.50;16.20;;;;;;;;;;5015140;28;20057;-66
2022/01/27 08:18:32;;;;;;;36.65;15.95;;;;;;;;;;5010901;28;20054;-65
2022/01/27 08:20:58;;;;;;;42.58;15.63;;;;;;;;;;5013427;28;20542;-66
2022/01/27 08:23:24;;;;;;;36.35;13.85;;;;;;;;;;5013607;28;20140;-65
2022/01/27 08:26:01;;;;;;;38.00;15.80;;;;;;;;;;5013671;28;20085;-65
2022/01/27 08:28:33;;;;;;;40.28;16.33;;;;;;;;;;5015156;28;20100;-67
2022/01/27 08:30:59;;;;;;;39.08;15.70;;;;;;;;;;5013597;28;20056;-65
2022/01/27 08:33:29;;;;;;;35.35;15.45;;;;;;;;;;5014808;28;20064;-66
2022/01/27 08:35:55;;;;;;;38.35;16.02;;;;;;;;;;5013979;28;20053;-66
2022/01/27 08:38:21;;;;;;;41.10;16.13;;;;;;;;;;5013496;28;20132;-66
2022/01/27 08:40:47;;;;;;;34.47;15.52;;;;;;;;;;5014018;28;20534;-66
2022/01/27 08:43:13;;;;;;;40.45;15.38;;;;;;;;;;5013167;28;20045;-66
2022/01/27 08:45:42;;;;;;;39.83;16.40;;;;;;;;;;5013217;28;20046;-66
2022/01/27 08:48:10;;;;;;;30.25;14.98;;;;;;;;;;5014272;28;20494;-66
2022/01/27 08:50:36;;;;;;;30.40;14.32;;;;;;;;;;5013458;28;20482;-65
2022/01/27 08:53:03;;;;;;;37.58;14.77;;;;;;;;;;5013785;28;20104;-65
2022/01/27 08:55:29;;;;;;;36.30;14.07;;;;;;;;;;5012875;28;20062;-65
2022/01/27 08:57:55;;;;;;;30.52;14.10;;;;;;;;;;5014487;28;20093;-68
2022/01/27 09:00:21;;;;;;;37.65;14.25;;;;;;;;;;5014377;28;20155;-66
2022/01/27 09:02:47;;;;;;;25.85;11.55;;;;;;;;;;5013043;28;20065;-68
2022/01/27 09:05:14;;;;;;;31.48;13.43;;;;;;;;;;5014633;28;20478;-64
2022/01/27 09:07:41;;;;;;;38.70;13.20;;;;;;;;;;5013315;28;20508;-65
2022/01/27 09:10:07;;;;;;;28.45;12.85;;;;;;;;;;4996543;28;20045;-67
2022/01/27 09:12:33;;;;;;;28.00;11.85;;;;;;;;;;5013235;28;20148;-65
2022/01/27 09:15:01;;;;;;;32.42;11.90;;;;;;;;;;5013005;28;20453;-66
2022/01/27 09:17:27;;;;;;;28.85;10.88;;;;;;;;;;5011686;28;20058;-64
2022/01/27 09:19:53;;;;;;;28.02;10.95;;;;;;;;;;5012495;28;20134;-67
2022/01/27 09:22:20;;;;;;;27.40;11.13;;;;;;;;;;5013233;28;20096;-67
2022/01/27 09:24:55;;;;;;;25.40;11.30;;;;;;;;;;5012777;28;20153;-68
2022/01/27 09:27:23;;;;;;;23.73;9.60;;;;;;;;;;5013601;28;20054;-67
2022/01/27 09:29:49;;;;;;;20.98;9.48;;;;;;;;;;5014565;28;20096;-65
2022/01/27 09:32:15;;;;;;;25.88;9.38;;;;;;;;;;5014201;28;20127;-65
2022/01/27 09:34:42;;;;;;;22.83;8.95;;;;;;;;;;5012674;28;20056;-66
2022/01/27 09:37:08;;;;;;;19.02;8.82;;;;;;;;;;5013872;28;20054;-66
2022/01/27 09:39:34;;;;;;;20.70;8.10;;;;;;;;;;5012567;28;20101;-66
2022/01/27 09:42:01;;;;;;;26.08;9.10;;;;;;;;;;5012001;28;20054;-65
2022/01/27 09:44:29;;;;;;;20.00;8.82;;;;;;;;;;5013309;28;20060;-65
2022/01/27 09:46:58;;;;;;;20.95;8.43;;;;;;;;;;5012675;28;20450;-67
2022/01/27 09:49:41;;;;;;;22.23;8.55;;;;;;;;;;5012324;28;20042;-67
2022/01/27 09:52:08;;;;;;;20.20;7.47;;;;;;;;;;5011253;28;20057;-67
2022/01/27 09:54:34;;;;;;;19.85;6.93;;;;;;;;;;5011606;28;20057;-65
2022/01/27 09:57:01;;;;;;;16.92;6.40;;;;;;;;;;5012171;28;20050;-67
2022/01/27 09:59:27;;;;;;;18.38;7.22;;;;;;;;;;5011884;28;20053;-65
2022/01/27 10:01:58;;;;;;;18.23;7.00;;;;;;;;;;5012129;28;20100;-65
2022/01/27 10:04:40;;;;;;;18.35;6.45;;;;;;;;;;5010820;28;20053;-67
2022/01/27 10:07:06;;;;;;;17.13;6.55;;;;;;;;;;5010978;28;20066;-67
2022/01/27 10:09:32;;;;;;;18.35;6.45;;;;;;;;;;5014147;28;20088;-65
2022/01/27 10:12:01;;;;;;;24.23;7.30;;;;;;;;;;5010834;28;20080;-68
2022/01/27 10:14:32;;;;;;;19.65;6.35;;;;;;;;;;5011572;28;20050;-67
2022/01/27 10:17:03;;;;;;;17.80;6.90;;;;;;;;;;5011885;28;20049;-65
2022/01/27 10:19:30;;;;;;;21.45;6.72;;;;;;;;;;5012595;28;20153;-65
2022/01/27 10:22:06;;;;;;;15.57;5.55;;;;;;;;;;4995855;28;20053;-66
2022/01/27 10:24:33;;;;;;;19.75;6.15;;;;;;;;;;5011651;28;20049;-68
2022/01/27 10:32:55;;;;;;;18.90;6.70;;;;;;;;;;5011845;28;20060;-66
2022/01/27 10:35:23;;;;;;;11.48;5.35;;;;;;;;;;5006791;28;20073;-64
2022/01/27 10:37:52;;;;;;;19.25;6.05;;;;;;;;;;5006099;28;20371;-68
2022/01/27 10:40:27;;;;;;;17.05;5.88;;;;;;;;;;5009061;28;20054;-65
2022/01/27 10:43:20;;;;;;;17.85;5.90;;;;;;;;;;4998277;28;20097;-65
2022/01/27 10:46:04;;;;;;;16.98;5.10;;;;;;;;;;5002616;28;20054;-66
2022/01/27 10:48:33;;;;;;;16.35;5.47;;;;;;;;;;5011051;28;20067;-66
2022/01/27 10:51:03;;;;;;;21.13;5.82;;;8.50;99.90;;;;;;5012976;28;20061;-66
2022/01/27 10:54:05;;;;;;;12.60;4.93;;;8.50;99.90;;;;;;5009877;28;20061;-66
2022/01/27 10:56:33;;;;;;;19.80;5.70;;;8.50;99.90;;;;;;5009908;28;20049;-66
2022/01/27 10:59:02;;;;;;;17.75;5.90;;;8.50;99.90;;;;;;5007052;28;20420;-67
2022/01/27 11:01:36;;;;;;;18.90;5.03;;;8.60;99.90;;;;;;5006491;28;20057;-65
2022/01/27 11:04:04;;;;;;;15.00;4.80;;;8.60;99.90;;;;;;5010559;28;20115;-66
2022/01/27 11:06:33;;;;;;;16.92;4.93;;;8.60;99.90;;;;;;5003443;28;20545;-66
2022/01/27 11:09:03;;;;;;;14.85;5.20;;;8.60;99.90;;;;;;5002959;28;20050;-65
2022/01/27 11:11:29;;;;;;;15.85;5.55;;;8.60;99.90;;;;;;4991837;28;20054;-68
2022/01/27 11:13:58;;;;;;;15.48;4.80;;;8.60;99.90;;;;;;4995441;28;20476;-69
2022/01/27 11:16:32;;;;;;;15.88;5.35;;;8.60;99.90;;;;;;5005072;28;20045;-68
2022/01/27 11:19:13;;;;;;;19.67;5.03;;;8.60;99.90;;;;;;5015817;28;20041;-67
2022/01/27 11:21:42;;;;;;;10.93;4.30;;;8.60;99.90;;;;;;4998254;28;20054;-66
2022/01/27 11:24:16;;;;;;;13.95;4.50;;;8.70;99.90;;;;;;4995670;28;20394;-67
2022/01/27 11:26:45;;;;;;;13.88;4.82;;;8.70;99.90;;;;;;5005883;28;20046;-67
2022/01/27 11:29:14;;;;;;;14.07;4.53;;;8.70;99.90;;;;;;5013080;28;20060;-66
2022/01/27 11:31:48;;;;;;;15.77;4.88;;;8.70;99.90;;;;;;5012407;28;20386;-68
2022/01/27 11:34:14;;;;;;;14.25;4.72;;;8.70;99.90;;;;;;5014037;28;20089;-65
2022/01/27 11:37:03;;;;;;;17.98;3.67;;;8.80;99.90;;;;;;5014811;28;20107;-66
2022/01/27 11:39:49;;;;;;;14.95;4.00;;;8.80;99.90;;;;;;5015178;28;20077;-67
2022/01/27 11:42:18;;;;;;;12.52;4.05;;;8.80;99.90;;;;;;5015311;28;20058;-67
2022/01/27 11:44:45;;;;;;;16.90;4.03;;;8.90;99.90;;;;;;5015096;28;20413;-68
2022/01/27 11:47:11;;;;;;;13.80;3.65;;;9.00;99.90;;;;;;5014908;28;20100;-66
2022/01/27 11:50:01;;;;;;;9.18;3.33;;;9.00;99.90;;;;;;5015048;28;20060;-66
2022/01/27 11:52:33;;;;;;;12.52;4.18;;;9.10;99.90;;;;;;4998224;28;20393;-68
2022/01/27 11:55:23;;;;;;;15.70;3.47;;;9.10;99.90;;;;;;5014014;28;20064;-67
2022/01/27 11:57:49;;;;;;;16.05;3.97;;;9.10;99.90;;;;;;5015628;28;20065;-65
2022/01/27 12:00:22;;;;;;;11.23;3.20;;;9.10;99.90;;;;;;5014350;28;20184;-66
2022/01/27 12:02:57;;;;;;;12.93;3.45;;;9.00;99.90;;;;;;5013317;28;20058;-67
2022/01/27 12:05:24;;;;;;;13.82;3.42;;;9.00;99.90;;;;;;5012173;28;20116;-68
2022/01/27 12:08:20;;;;;;;12.30;4.28;;;9.00;99.90;;;;;;5014557;28;20066;-65
2022/01/27 12:11:02;;;;;;;11.60;3.33;;;9.00;99.90;;;;;;5014071;28;20058;-67
2022/01/27 12:19:02;;;;;;;17.17;3.17;;;9.10;99.90;;;;;;5012066;28;20138;-66
2022/01/27 12:21:31;;;;;;;12.52;3.30;;;9.10;99.90;;;;;;5015474;28;20128;-66
2022/01/27 12:24:25;;;;;;;18.48;3.15;;;9.20;99.90;;;;;;5014207;28;20092;-66
2022/01/27 12:27:16;;;;;;;12.02;3.03;;;9.20;99.90;;;;;;5013335;28;20405;-66
2022/01/27 12:29:47;;;;;;;14.20;3.13;;;9.20;99.90;;;;;;5008125;28;20057;-66
2022/01/27 12:32:15;;;;;;;8.88;2.42;;;9.30;99.90;;;;;;5015443;28;20434;-66
2022/01/27 12:35:15;;;;;;;13.18;2.40;;;9.30;99.90;;;;;;5013832;28;20065;-68
2022/01/27 12:37:50;;;;;;;11.20;2.88;;;9.30;99.90;;;;;;5013229;28;20127;-66
2022/01/27 12:40:20;;;;;;;11.75;3.03;;;9.30;99.90;;;;;;5005061;28;20073;-66
2022/01/27 12:42:59;;;;;;;17.75;2.70;;;9.30;99.90;;;;;;5008313;28;20049;-68
2022/01/27 12:45:28;;;;;;;14.00;2.80;;;9.30;99.90;;;;;;5012053;28;20359;-67
2022/01/27 12:47:55;;;;;;;12.65;3.50;;;9.30;99.90;;;;;;5002535;28;20046;-67
2022/01/27 12:50:23;;;;;;;11.35;3.10;;;9.30;99.90;;;;;;4999470;28;20046;-67
2022/01/27 12:52:52;;;;;;;12.95;3.42;;;9.30;99.90;;;;;;4998114;28;20061;-69
2022/01/27 12:55:21;;;;;;;17.88;4.53;;;9.30;99.90;;;;;;4998561;28;20046;-68
2022/01/27 12:58:04;;;;;;;14.20;3.05;;;9.30;99.90;;;;;;4998259;28;20057;-66
2022/01/27 13:00:43;;;;;;;18.48;3.70;;;9.30;99.90;;;;;;5003749;28;20054;-66
2022/01/27 13:03:10;;;;;;;14.85;3.60;;;9.30;99.90;;;;;;5000347;28;20058;-67
2022/01/27 13:05:41;;;;;;;11.02;3.38;;;9.30;99.90;;;;;;5015721;28;20081;-67
2022/01/27 13:08:09;;;;;;;15.55;3.95;;;9.30;99.90;;;;;;4998975;28;20062;-65
2022/01/27 13:10:36;;;;;;;13.40;3.13;;;9.30;99.90;;;;;;4999900;28;20046;-67
2022/01/27 13:13:12;;;;;;;10.07;3.10;;;9.30;99.90;;;;;;4998236;28;20058;-65
2022/01/27 13:15:38;;;;;;;12.25;3.20;;;9.30;99.90;;;;;;5001142;28;20054;-67
2022/01/27 13:18:28;;;;;;;14.60;2.95;;;9.30;99.90;;;;;;5013594;28;20049;-65
2022/01/27 13:20:57;;;;;;;14.45;3.42;;;9.30;99.90;;;;;;5011128;28;20053;-65
2022/01/27 13:23:31;;;;;;;14.90;3.30;;;9.30;99.90;;;;;;5017363;28;20053;-67
2022/01/27 13:26:04;;;;;;;11.25;2.90;;;9.30;99.90;;;;;;5004423;28;20735;-66
2022/01/27 13:28:33;;;;;;;12.30;2.92;;;9.30;99.90;;;;;;5010035;28;20080;-67
2022/01/27 13:31:06;;;;;;;15.38;3.67;;;9.30;99.90;;;;;;5005081;28;20054;-66
2022/01/27 13:33:37;;;;;;;12.88;2.78;;;9.30;99.90;;;;;;4998865;28;20054;-66
2022/01/27 13:36:03;;;;;;;10.45;2.80;;;9.30;99.90;;;;;;5008284;28;20057;-66
2022/01/27 13:38:39;;;;;;;9.52;2.70;;;9.30;99.90;;;;;;5000907;28;20072;-67
2022/01/27 13:41:16;;;;;;;13.07;2.80;;;9.30;99.90;;;;;;4997304;28;20085;-66
2022/01/27 13:43:44;;;;;;;16.70;2.63;;;9.30;99.90;;;;;;4996676;28;20078;-68
2022/01/27 13:46:11;;;;;;;17.88;3.10;;;9.40;99.90;;;;;;5000467;28;20050;-69
2022/01/27 13:48:45;;;;;;;16.40;3.33;;;9.40;99.90;;;;;;5012787;28;20058;-67
2022/01/27 13:51:19;;;;;;;14.77;2.58;;;9.40;99.90;;;;;;5012176;28;20073;-66
2022/01/27 13:54:21;;;;;;;20.10;3.50;;;9.40;99.90;;;;;;5013695;28;20072;-66
2022/01/27 13:56:51;;;;;;;9.05;2.60;;;9.40;99.90;;;;;;5000936;28;20058;-66
2022/01/27 13:59:21;;;;;;;11.20;2.50;;;9.30;99.90;;;;;;5012301;28;20060;-68
2022/01/27 14:01:48;;;;;;;16.65;3.92;;;9.30;99.90;;;;;;5011939;28;20062;-65
2022/01/27 14:04:15;;;;;;;14.68;3.65;;;9.20;99.90;;;;;;5012815;28;20045;-66
2022/01/27 14:06:48;;;;;;;17.55;3.90;;;9.20;99.90;;;;;;5011900;28;20058;-69
2022/01/27 14:09:16;;;;;;;8.15;1.70;;;9.20;99.90;;;;;;5009869;28;20062;-66
2022/01/27 14:11:41;;;;;;;14.35;2.33;;;9.10;99.90;;;;;;5010633;28;20057;-68
2022/01/27 14:14:08;;;;;;;11.15;2.67;;;9.10;99.90;;;;;;5011542;28;20129;-66
2022/01/27 14:16:34;;;;;;;13.65;3.45;;;9.10;99.90;;;;;;5000899;28;20502;-65
2022/01/27 14:19:11;;;;;;;12.90;3.20;;;9.10;99.90;;;;;;4994464;28;20054;-67
2022/01/27 14:21:44;;;;;;;8.93;2.70;;;9.10;99.90;;;;;;5010022;28;20057;-67
2022/01/27 14:24:14;;;;;;;13.15;3.05;;;9.00;99.90;;;;;;5011674;28;20054;-68
2022/01/27 14:26:41;;;;;;;16.08;2.95;;;8.80;99.90;;;;;;5010692;28;20490;-65
2022/01/27 14:29:14;;;;;;;14.43;3.63;;;8.70;99.90;;;;;;5010450;28;20050;-67
2022/01/27 14:31:45;;;;;;;17.98;2.97;;;8.70;99.90;;;;;;5010207;28;20065;-67
2022/01/27 14:34:14;;;;;;;16.67;3.15;;;8.60;99.90;;;;;;5012013;28;20053;-66
2022/01/27 14:36:41;;;;;;;16.02;3.45;;;8.50;99.90;;;;;;5012519;28;20482;-68
2022/01/27 14:39:07;;;;;;;16.60;2.50;;;8.50;99.90;;;;;;5012051;28;20050;-66
2022/01/27 14:41:33;;;;;;;13.27;2.88;;;8.50;99.90;;;;;;5011378;28;20050;-66
2022/01/27 14:43:59;;;;;;;12.02;2.47;;;8.50;99.90;;;;;;5011618;28;20126;-67
2022/01/27 14:46:37;;;;;;;18.35;2.95;;;8.50;99.90;;;;;;5011593;28;20057;-67
2022/01/27 14:49:05;;;;;;;15.15;3.55;;;8.40;99.90;;;;;;5014463;28;20108;-66
2022/01/27 14:51:34;;;;;;;17.05;3.08;;;8.40;99.90;;;;;;5016155;28;20413;-65
2022/01/27 14:53:59;;;;;;;22.95;3.33;;;8.40;99.90;;;;;;5017182;28;20057;-67
2022/01/27 14:56:25;;;;;;;16.50;3.13;;;8.40;99.90;;;;;;5016679;28;20128;-65
2022/01/27 14:58:51;;;;;;;13.93;2.70;;;8.40;99.90;;;;;;5014859;28;20068;-67
2022/01/27 15:01:18;;;;;;;19.77;3.65;;;8.40;99.90;;;;;;4999185;28;20050;-66
2022/01/27 15:03:44;;;;;;;15.18;3.08;;;8.30;99.90;;;;;;5017009;28;20378;-66
2022/01/27 15:06:09;;;;;;;18.02;2.90;;;8.30;99.90;;;;;;5015221;28;20046;-65
2022/01/27 15:08:35;;;;;;;13.40;1.98;;;8.30;99.90;;;;;;5015539;28;20050;-67
2022/01/27 15:11:01;;;;;;;16.42;3.25;;;8.30;99.90;;;;;;5016098;28;20515;-65
2022/01/27 15:13:26;;;;;;;13.63;3.28;;;8.30;99.90;;;;;;5016857;28;20129;-65
2022/01/27 15:18:49;;;;;;;14.40;2.70;;;8.30;99.90;;;;;;5016273;28;20097;-67
2022/01/27 15:21:15;;;;;;;19.73;2.85;;;8.20;99.90;;;;;;5014136;28;20108;-66
2022/01/27 15:23:42;;;;;;;20.52;3.45;;;8.20;99.90;;;;;;5015508;28;20089;-66
2022/01/27 15:26:08;;;;;;;16.48;2.70;;;8.20;99.90;;;;;;5014304;28;20088;-66
2022/01/27 15:28:33;;;;;;;14.93;2.80;;;8.20;99.90;;;;;;5015075;28;20085;-67